sensor_id;sensor_type;location;lat;lon;timestamp;pressure;altitude;pressure_sealevel;temperature;humidity
63654;BME280;49809;47.418;19.080;2023-05-10T10:10:00;100643.75;;;25.40;33.84
63654;BME280;49809;47.418;19.080;2023-05-10T15:10:17;100417.25;;;21.07;35.96
63654;BME280;49809;47.418;19.080;2023-05-10T15:13:24;100429.47;;;20.78;36.74
63654;BME280;49809;47.418;19.080;2023-05-10T15:17:10;100425.97;;;20.87;35.74
63654;BME280;49809;47.418;19.080;2023-05-10T15:20:13;100426.44;;;20.97;35.71
63654;BME280;49809;47.418;19.080;2023-05-10T15:23:17;100427.56;;;20.79;35.30
63654;BME280;49809;47.418;19.080;2023-05-10T15:26:22;100431.50;;;20.47;36.31
63654;BME280;49809;47.418;19.080;2023-05-10T15:29:32;100428.16;;;20.42;35.33
63654;BME280;49809;47.418;19.080;2023-05-10T15:32:40;100432.97;;;20.14;36.04
63654;BME280;49809;47.418;19.080;2023-05-10T15:35:46;100424.84;;;20.05;36.63
63654;BME280;49809;47.418;19.080;2023-05-10T15:38:49;100434.03;;;20.04;36.77
63654;BME280;49809;47.418;19.080;2023-05-10T15:41:54;100416.09;;;19.91;35.90
63654;BME280;49809;47.418;19.080;2023-05-10T15:44:57;100420.37;;;19.92;36.68
63654;BME280;49809;47.418;19.080;2023-05-10T15:48:01;100416.37;;;19.81;37.32
63654;BME280;49809;47.418;19.080;2023-05-10T15:51:06;100415.63;;;19.58;37.60
63654;BME280;49809;47.418;19.080;2023-05-10T15:54:28;100415.19;;;19.42;38.48
63654;BME280;49809;47.418;19.080;2023-05-10T15:57:34;100421.56;;;19.24;38.73
63654;BME280;49809;47.418;19.080;2023-05-10T16:00:41;100416.66;;;19.04;38.27
63654;BME280;49809;47.418;19.080;2023-05-10T16:03:46;100413.25;;;18.90;38.04
63654;BME280;49809;47.418;19.080;2023-05-10T16:06:52;100407.41;;;18.88;38.30
63654;BME280;49809;47.418;19.080;2023-05-10T16:09:55;100423.84;;;18.95;38.09
63654;BME280;49809;47.418;19.080;2023-05-10T16:13:01;100424.38;;;18.83;38.63
63654;BME280;49809;47.418;19.080;2023-05-10T16:16:06;100421.19;;;18.95;37.43
63654;BME280;49809;47.418;19.080;2023-05-10T16:19:13;100423.34;;;18.93;37.30
63654;BME280;49809;47.418;19.080;2023-05-10T16:22:17;100430.06;;;18.82;38.35
63654;BME280;49809;47.418;19.080;2023-05-10T16:25:22;100428.75;;;18.79;38.72
63654;BME280;49809;47.418;19.080;2023-05-10T16:28:26;100426.19;;;18.88;38.11
63654;BME280;49809;47.418;19.080;2023-05-10T16:31:29;100421.56;;;18.66;38.96
63654;BME280;49809;47.418;19.080;2023-05-10T16:34:35;100426.19;;;18.74;38.21
63654;BME280;49809;47.418;19.080;2023-05-10T16:37:42;100420.97;;;18.55;39.33
63654;BME280;49809;47.418;19.080;2023-05-10T16:40:49;100421.84;;;18.64;38.80
63654;BME280;49809;47.418;19.080;2023-05-10T16:43:56;100423.66;;;18.55;39.52
63654;BME280;49809;47.418;19.080;2023-05-10T16:46:59;100427.31;;;18.46;39.21
63654;BME280;49809;47.418;19.080;2023-05-10T16:50:05;100431.78;;;18.37;41.09
63654;BME280;49809;47.418;19.080;2023-05-10T16:53:09;100437.06;;;18.28;42.25
63654;BME280;49809;47.418;19.080;2023-05-10T16:56:13;100437.66;;;18.25;42.35
63654;BME280;49809;47.418;19.080;2023-05-10T16:59:25;100433.69;;;18.09;43.69
63654;BME280;49809;47.418;19.080;2023-05-10T17:02:28;100440.84;;;18.00;44.25
63654;BME280;49809;47.418;19.080;2023-05-10T17:05:34;100438.44;;;17.85;44.67
63654;BME280;49809;47.418;19.080;2023-05-10T17:08:37;100440.97;;;17.62;45.38
63654;BME280;49809;47.418;19.080;2023-05-10T17:11:42;100446.69;;;17.56;45.86
63654;BME280;49809;47.418;19.080;2023-05-10T17:14:48;100447.66;;;17.46;46.61
63654;BME280;49809;47.418;19.080;2023-05-10T17:17:51;100452.66;;;17.34;47.15
63654;BME280;49809;47.418;19.080;2023-05-10T17:20:56;100451.66;;;17.30;47.43
63654;BME280;49809;47.418;19.080;2023-05-10T17:24:00;100451.88;;;17.15;48.28
63654;BME280;49809;47.418;19.080;2023-05-10T17:27:14;100458.69;;;17.07;48.85
63654;BME280;49809;47.418;19.080;2023-05-10T17:30:19;100461.72;;;17.01;49.11
63654;BME280;49809;47.418;19.080;2023-05-10T17:33:34;100457.03;;;16.92;49.43
63654;BME280;49809;47.418;19.080;2023-05-10T17:36:40;100463.59;;;16.81;49.66
63654;BME280;49809;47.418;19.080;2023-05-10T17:39:45;100462.00;;;16.80;49.78
63654;BME280;49809;47.418;19.080;2023-05-10T17:42:52;100459.38;;;16.75;49.95
63654;BME280;49809;47.418;19.080;2023-05-10T17:45:55;100467.47;;;16.70;50.35
63654;BME280;49809;47.418;19.080;2023-05-10T17:49:01;100471.59;;;16.63;50.23
63654;BME280;49809;47.418;19.080;2023-05-10T17:52:04;100465.53;;;16.52;51.44
63654;BME280;49809;47.418;19.080;2023-05-10T17:55:07;100472.47;;;16.53;50.84
63654;BME280;49809;47.418;19.080;2023-05-10T17:58:11;100467.47;;;16.46;50.76
63654;BME280;49809;47.418;19.080;2023-05-10T18:01:16;100475.44;;;16.28;51.64
63654;BME280;49809;47.418;19.080;2023-05-10T18:04:21;100482.81;;;16.12;52.13
63654;BME280;49809;47.418;19.080;2023-05-10T18:07:26;100482.94;;;16.02;52.69
63654;BME280;49809;47.418;19.080;2023-05-10T18:10:35;100478.78;;;15.91;52.96
63654;BME280;49809;47.418;19.080;2023-05-10T18:13:43;100476.97;;;15.86;52.72
63654;BME280;49809;47.418;19.080;2023-05-10T18:17:07;100481.50;;;15.86;52.83
63654;BME280;49809;47.418;19.080;2023-05-10T18:20:20;100481.31;;;15.77;52.85
63654;BME280;49809;47.418;19.080;2023-05-10T18:23:24;100496.38;;;15.63;52.71
63654;BME280;49809;47.418;19.080;2023-05-10T18:26:31;100491.13;;;15.53;52.69
63654;BME280;49809;47.418;19.080;2023-05-10T18:29:40;100496.53;;;15.38;53.28
63654;BME280;49809;47.418;19.080;2023-05-10T18:32:48;100497.63;;;15.37;52.84
63654;BME280;49809;47.418;19.080;2023-05-10T18:35:53;100504.63;;;15.28;53.25
63654;BME280;49809;47.418;19.080;2023-05-10T18:38:57;100507.63;;;15.11;53.90
63654;BME280;49809;47.418;19.080;2023-05-10T18:42:04;100517.25;;;15.07;53.57
63654;BME280;49809;47.418;19.080;2023-05-10T18:45:08;100514.66;;;14.97;54.10
63654;BME280;49809;47.418;19.080;2023-05-10T18:48:32;100523.22;;;14.89;54.76
63654;BME280;49809;47.418;19.080;2023-05-10T18:51:36;100518.75;;;14.79;54.72
63654;BME280;49809;47.418;19.080;2023-05-10T18:54:39;100527.31;;;14.71;54.94
63654;BME280;49809;47.418;19.080;2023-05-10T18:57:43;100528.94;;;14.62;55.16
63654;BME280;49809;47.418;19.080;2023-05-10T19:00:47;100525.16;;;14.73;54.69
63654;BME280;49809;47.418;19.080;2023-05-10T19:03:55;100532.09;;;14.69;54.74
63654;BME280;49809;47.418;19.080;2023-05-10T19:06:59;100526.31;;;14.57;54.42
63654;BME280;49809;47.418;19.080;2023-05-10T19:10:05;100530.28;;;14.59;54.69
63654;BME280;49809;47.418;19.080;2023-05-10T19:13:11;100534.31;;;14.47;54.90
63654;BME280;49809;47.418;19.080;2023-05-10T19:16:17;100540.97;;;14.39;55.80
63654;BME280;49809;47.418;19.080;2023-05-10T19:19:25;100537.50;;;14.33;55.47
63654;BME280;49809;47.418;19.080;2023-05-10T19:22:31;100541.28;;;14.17;55.99
63654;BME280;49809;47.418;19.080;2023-05-10T19:26:09;100541.28;;;14.22;55.89
63654;BME280;49809;47.418;19.080;2023-05-10T19:29:15;100535.41;;;14.15;55.79
63654;BME280;49809;47.418;19.080;2023-05-10T19:32:20;100535.41;;;14.10;55.77
63654;BME280;49809;47.418;19.080;2023-05-10T19:35:27;100541.78;;;14.14;55.80
63654;BME280;49809;47.418;19.080;2023-05-10T19:38:34;100539.13;;;14.09;56.48
63654;BME280;49809;47.418;19.080;2023-05-10T19:41:40;100542.09;;;14.03;56.15
63654;BME280;49809;47.418;19.080;2023-05-10T19:44:43;100536.75;;;14.03;56.25
63654;BME280;49809;47.418;19.080;2023-05-10T19:47:49;100531.69;;;14.11;56.14
63654;BME280;49809;47.418;19.080;2023-05-10T19:51:24;100537.56;;;14.08;56.17
63654;BME280;49809;47.418;19.080;2023-05-10T19:54:30;100531.69;;;14.11;55.93
63654;BME280;49809;47.418;19.080;2023-05-10T19:57:36;100530.62;;;14.07;55.77
63654;BME280;49809;47.418;19.080;2023-05-10T20:00:43;100534.63;;;14.05;56.13
63654;BME280;49809;47.418;19.080;2023-05-10T20:03:51;100530.09;;;14.05;55.86
63654;BME280;49809;47.418;19.080;2023-05-10T20:06:58;100537.56;;;14.13;55.66
63654;BME280;49809;47.418;19.080;2023-05-10T20:10:04;100529.56;;;14.08;55.66
63654;BME280;49809;47.418;19.080;2023-05-10T20:13:07;100530.09;;;14.10;55.85
63654;BME280;49809;47.418;19.080;2023-05-10T20:16:12;100537.00;;;14.11;55.91
63654;BME280;49809;47.418;19.080;2023-05-10T20:19:20;100533.81;;;14.14;56.06
63654;BME280;49809;47.418;19.080;2023-05-10T20:22:57;100538.87;;;14.06;56.11
63654;BME280;49809;47.418;19.080;2023-05-10T20:26:03;100537.03;;;14.06;56.29
63654;BME280;49809;47.418;19.080;2023-05-10T20:29:07;100533.56;;;14.11;55.92
63654;BME280;49809;47.418;19.080;2023-05-10T20:32:12;100536.47;;;14.09;56.05
63654;BME280;49809;47.418;19.080;2023-05-10T20:35:18;100539.13;;;14.04;56.06
63654;BME280;49809;47.418;19.080;2023-05-10T20:38:22;100540.22;;;14.03;56.52
63654;BME280;49809;47.418;19.080;2023-05-10T20:41:26;100539.44;;;13.98;56.72
63654;BME280;49809;47.418;19.080;2023-05-10T20:44:30;100537.81;;;14.02;56.69
63654;BME280;49809;47.418;19.080;2023-05-10T20:47:36;100528.00;;;13.97;57.09
63654;BME280;49809;47.418;19.080;2023-05-10T20:51:02;100535.97;;;14.02;57.17
63654;BME280;49809;47.418;19.080;2023-05-10T20:54:27;100531.16;;;14.04;56.98
63654;BME280;49809;47.418;19.080;2023-05-10T20:57:30;100536.47;;;14.04;56.98
63654;BME280;49809;47.418;19.080;2023-05-10T21:00:38;100536.47;;;13.99;57.57
63654;BME280;49809;47.418;19.080;2023-05-10T21:03:41;100534.91;;;14.08;57.10
63654;BME280;49809;47.418;19.080;2023-05-10T21:06:45;100535.41;;;14.15;56.75
63654;BME280;49809;47.418;19.080;2023-05-10T21:09:48;100530.09;;;14.15;56.57
63654;BME280;49809;47.418;19.080;2023-05-10T21:12:53;100530.34;;;14.19;56.42
63654;BME280;49809;47.418;19.080;2023-05-10T21:16:00;100535.16;;;14.07;56.86
63654;BME280;49809;47.418;19.080;2023-05-10T21:19:05;100529.81;;;14.22;55.86
63654;BME280;49809;47.418;19.080;2023-05-10T21:22:09;100530.34;;;14.14;56.57
63654;BME280;49809;47.418;19.080;2023-05-10T21:25:14;100523.12;;;14.24;55.64
63654;BME280;49809;47.418;19.080;2023-05-10T21:28:38;100524.50;;;14.17;56.10
63654;BME280;49809;47.418;19.080;2023-05-10T21:31:44;100532.75;;;14.20;55.72
63654;BME280;49809;47.418;19.080;2023-05-10T21:34:48;100534.84;;;14.28;55.34
63654;BME280;49809;47.418;19.080;2023-05-10T21:37:55;100531.69;;;14.21;55.60
63654;BME280;49809;47.418;19.080;2023-05-10T21:40:59;100529.56;;;14.13;55.94
63654;BME280;49809;47.418;19.080;2023-05-10T21:44:03;100535.94;;;14.17;55.87
63654;BME280;49809;47.418;19.080;2023-05-10T21:47:11;100538.87;;;14.21;55.56
63654;BME280;49809;47.418;19.080;2023-05-10T21:50:15;100531.94;;;14.20;55.36
63654;BME280;49809;47.418;19.080;2023-05-10T21:53:19;100534.34;;;14.16;55.44
63654;BME280;49809;47.418;19.080;2023-05-10T21:56:23;100537.00;;;14.16;55.61
63654;BME280;49809;47.418;19.080;2023-05-10T21:59:26;100532.22;;;14.18;55.60
63654;BME280;49809;47.418;19.080;2023-05-10T22:02:30;100534.63;;;14.10;56.32
63654;BME280;49809;47.418;19.080;2023-05-10T22:05:35;100540.47;;;14.17;55.61
63654;BME280;49809;47.418;19.080;2023-05-10T22:08:50;100543.41;;;14.10;55.90
63654;BME280;49809;47.418;19.080;2023-05-10T22:11:54;100546.59;;;14.07;56.10
63654;BME280;49809;47.418;19.080;2023-05-10T22:14:59;100556.19;;;14.13;55.99
63654;BME280;49809;47.418;19.080;2023-05-10T22:18:42;100550.59;;;14.05;56.41
63654;BME280;49809;47.418;19.080;2023-05-10T22:21:48;100555.91;;;14.05;56.68
63654;BME280;49809;47.418;19.080;2023-05-10T22:24:52;100550.59;;;14.00;56.74
63654;BME280;49809;47.418;19.080;2023-05-10T22:27:56;100559.37;;;13.90;56.96
63654;BME280;49809;47.418;19.080;2023-05-10T22:31:44;100566.84;;;13.78;57.53
63654;BME280;49809;47.418;19.080;2023-05-10T22:34:48;100557.78;;;13.69;57.52
63654;BME280;49809;47.418;19.080;2023-05-10T22:37:53;100553.50;;;13.53;58.52
63654;BME280;49809;47.418;19.080;2023-05-10T22:40:59;100563.06;;;13.38;58.83
63654;BME280;49809;47.418;19.080;2023-05-10T22:44:11;100555.31;;;13.27;59.48
63654;BME280;49809;47.418;19.080;2023-05-10T22:47:22;100557.69;;;13.13;60.11
63654;BME280;49809;47.418;19.080;2023-05-10T22:50:48;100557.16;;;13.11;60.16
63654;BME280;49809;47.418;19.080;2023-05-10T22:53:51;100557.06;;;12.96;60.68
63654;BME280;49809;47.418;19.080;2023-05-10T22:56:55;100557.00;;;12.81;61.60
63654;BME280;49809;47.418;19.080;2023-05-10T23:00:19;100560.97;;;12.78;61.74
63654;BME280;49809;47.418;19.080;2023-05-10T23:03:23;100560.34;;;12.61;62.35
63654;BME280;49809;47.418;19.080;2023-05-10T23:06:47;100559.25;;;12.52;62.83
63654;BME280;49809;47.418;19.080;2023-05-10T23:09:55;100567.66;;;12.34;63.67
63654;BME280;49809;47.418;19.080;2023-05-10T23:12:59;100566.78;;;12.23;64.21
63654;BME280;49809;47.418;19.080;2023-05-10T23:16:04;100569.91;;;12.15;64.40
63654;BME280;49809;47.418;19.080;2023-05-10T23:19:18;100569.06;;;12.09;64.91
63654;BME280;49809;47.418;19.080;2023-05-10T23:22:22;100568.22;;;12.04;65.35
63654;BME280;49809;47.418;19.080;2023-05-10T23:25:26;100561.91;;;12.10;65.37
63654;BME280;49809;47.418;19.080;2023-05-10T23:28:30;100569.84;;;12.05;65.66
63654;BME280;49809;47.418;19.080;2023-05-10T23:31:34;100563.16;;;12.02;65.74
63654;BME280;49809;47.418;19.080;2023-05-10T23:34:43;100571.88;;;11.98;66.11
63654;BME280;49809;47.418;19.080;2023-05-10T23:37:46;100576.94;;;11.99;66.01
63654;BME280;49809;47.418;19.080;2023-05-10T23:40:50;100568.44;;;11.97;66.06
63654;BME280;49809;47.418;19.080;2023-05-10T23:43:54;100571.09;;;11.97;66.21
63654;BME280;49809;47.418;19.080;2023-05-10T23:46:58;100574.53;;;11.98;66.38
63654;BME280;49809;47.418;19.080;2023-05-10T23:50:02;100572.69;;;11.98;66.71
63654;BME280;49809;47.418;19.080;2023-05-10T23:53:07;100572.91;;;11.92;66.59
63654;BME280;49809;47.418;19.080;2023-05-10T23:56:16;100575.53;;;11.92;66.57
63654;BME280;49809;47.418;19.080;2023-05-10T23:59:20;100577.66;;;11.90;66.84
